createdAt,value
2023-02-04T07:28:37.248Z,8.40
2023-02-04T07:31:04.175Z,7.80
2023-02-04T07:33:31.008Z,7.70
2023-02-04T07:35:58.115Z,7.70
2023-02-04T07:38:25.089Z,7.60
2023-02-04T07:40:51.862Z,7.50
2023-02-04T07:43:23.970Z,7.50
2023-02-04T07:45:51.077Z,7.40
2023-02-04T07:48:17.893Z,7.50
2023-02-04T07:50:45.125Z,7.50
2023-02-04T07:53:11.903Z,7.60
2023-02-04T07:55:38.681Z,7.70
2023-02-04T07:58:05.526Z,7.70
2023-02-04T08:00:32.811Z,7.80
2023-02-04T08:02:59.817Z,7.70
2023-02-04T08:05:26.670Z,7.70
2023-02-04T08:07:53.494Z,7.70
2023-02-04T08:10:21.470Z,7.60
2023-02-04T08:12:48.222Z,7.40
2023-02-04T08:15:15.067Z,7.40
2023-02-04T08:17:41.846Z,7.50
2023-02-04T08:20:09.837Z,7.50
2023-02-04T08:22:36.795Z,7.40
2023-02-04T08:25:05.457Z,7.40
2023-02-04T08:27:32.319Z,7.50
2023-02-04T08:29:59.306Z,7.50
2023-02-04T08:32:28.416Z,7.50
2023-02-04T08:34:55.670Z,7.60
2023-02-04T08:37:22.455Z,7.60
2023-02-04T08:39:49.316Z,7.60
2023-02-04T08:42:16.715Z,7.50
2023-02-04T08:44:43.997Z,7.60
2023-02-04T08:47:11.074Z,7.60
2023-02-04T08:49:37.922Z,7.60
2023-02-04T08:52:06.547Z,7.60
2023-02-04T08:54:33.991Z,7.60
2023-02-04T08:57:01.305Z,7.70
2023-02-04T08:59:28.419Z,7.60
2023-02-04T09:01:55.274Z,7.70
2023-02-04T09:04:23.896Z,7.70
2023-02-04T09:06:51.592Z,7.90
2023-02-04T09:09:18.476Z,7.80
2023-02-04T09:11:45.493Z,7.80
2023-02-04T09:14:12.319Z,7.90
2023-02-04T09:16:39.251Z,7.80
2023-02-04T09:19:09.053Z,7.90
2023-02-04T09:21:35.845Z,7.80
2023-02-04T09:24:02.707Z,7.90
2023-02-04T09:26:29.567Z,7.90
2023-02-04T09:28:56.380Z,8.00
2023-02-04T09:31:23.260Z,8.00
2023-02-04T09:33:50.096Z,8.00
2023-02-04T09:36:17.625Z,8.10
2023-02-04T09:38:44.461Z,8.10
2023-02-04T09:41:12.922Z,8.10
2023-02-04T09:43:44.229Z,8.10
2023-02-04T09:46:22.885Z,8.20
2023-02-04T09:48:50.974Z,8.20
2023-02-04T09:51:22.245Z,8.20
2023-02-04T09:53:49.724Z,8.20
2023-02-04T09:56:17.207Z,8.20
2023-02-04T09:58:44.295Z,8.30
2023-02-04T10:01:21.602Z,8.40
2023-02-04T10:03:51.358Z,8.40
2023-02-04T10:06:20.702Z,8.30
2023-02-04T10:08:49.346Z,8.40
2023-02-04T10:11:18.743Z,8.60
2023-02-04T10:13:54.436Z,8.60
2023-02-04T10:16:42.380Z,8.60
2023-02-04T10:19:16.403Z,8.50
2023-02-04T10:21:51.037Z,8.40
2023-02-04T10:24:21.169Z,8.50
2023-02-04T10:26:48.515Z,8.50
2023-02-04T10:29:20.021Z,8.60
2023-02-04T10:31:50.021Z,8.50
2023-02-04T10:34:23.591Z,8.50
2023-02-04T10:36:51.964Z,8.50
2023-02-04T10:39:22.627Z,8.40
2023-02-04T10:41:54.399Z,8.50
2023-02-04T10:44:33.743Z,8.60
2023-02-04T10:47:20.934Z,8.70
2023-02-04T10:49:55.936Z,8.80
2023-02-04T10:52:28.884Z,8.80
2023-02-04T10:54:55.684Z,8.60
2023-02-04T10:57:30.430Z,8.80
2023-02-04T11:00:01.348Z,8.80
2023-02-04T13:39:40.103Z,8.80
2023-02-04T13:42:06.920Z,10.90
2023-02-04T13:44:33.698Z,10.90
2023-02-04T13:47:00.560Z,10.80
2023-02-04T13:49:31.661Z,10.40
2023-02-04T13:51:58.449Z,10.70
2023-02-04T13:54:25.566Z,11.10
2023-02-04T13:56:52.482Z,10.80
2023-02-04T13:59:20.981Z,10.60
2023-02-04T14:01:48.072Z,10.60
2023-02-04T14:04:15.014Z,10.70
2023-02-04T14:06:43.701Z,11.00
2023-02-04T14:09:12.665Z,10.80
2023-02-04T14:11:40.425Z,10.80
2023-02-04T14:14:07.609Z,10.90
2023-02-04T14:16:36.355Z,10.90
2023-02-04T14:19:05.060Z,10.60
2023-02-04T14:21:32.193Z,10.30
2023-02-04T14:23:59.064Z,10.20
2023-02-04T14:26:25.852Z,10.10
2023-02-04T14:28:52.612Z,10.20
2023-02-04T14:31:19.845Z,10.20
2023-02-04T14:33:48.076Z,10.30
2023-02-04T14:36:16.683Z,10.10
2023-02-04T14:38:43.544Z,10.20
2023-02-04T14:41:12.490Z,10.30
2023-02-04T14:43:39.287Z,10.30
2023-02-04T14:46:06.199Z,10.30
2023-02-04T14:48:33.102Z,10.30
2023-02-04T14:50:59.932Z,10.50
2023-02-04T14:53:26.670Z,10.40
2023-02-04T14:55:53.672Z,10.60
2023-02-04T14:58:20.522Z,10.40
2023-02-04T22:25:13.516Z,10.30
2023-02-04T22:27:40.420Z,7.80
2023-02-04T22:30:09.025Z,7.70
2023-02-04T22:32:36.224Z,7.70
2023-02-04T22:35:03.188Z,7.70
2023-02-04T22:37:30.055Z,7.70
2023-02-04T22:39:56.839Z,7.80
2023-02-04T22:42:23.764Z,7.90
2023-02-04T22:44:50.625Z,7.90
2023-02-04T22:47:17.437Z,7.90
2023-02-04T22:49:44.225Z,7.90
2023-02-04T22:52:11.120Z,7.80
2023-02-04T22:54:41.409Z,7.80
2023-02-04T22:57:08.238Z,7.80
2023-02-04T22:59:35.414Z,7.80
2023-02-04T23:02:02.365Z,7.80
2023-02-04T23:04:29.182Z,7.80
2023-02-04T23:06:56.089Z,7.80
2023-02-04T23:09:23.301Z,7.80
2023-02-04T23:11:50.403Z,7.80
2023-02-04T23:14:17.240Z,7.80
2023-02-04T23:16:44.167Z,7.90
2023-02-04T23:19:11.003Z,7.80
2023-02-04T23:21:37.796Z,7.80
2023-02-04T23:24:04.999Z,7.80
2023-02-04T23:26:31.989Z,7.80
2023-02-04T23:29:00.844Z,7.80
2023-02-04T23:31:28.126Z,7.70
2023-02-04T23:33:54.920Z,7.70
2023-02-04T23:36:21.741Z,7.70
2023-02-04T23:38:48.490Z,7.70
2023-02-04T23:41:15.273Z,7.60
2023-02-04T23:43:42.064Z,7.70
2023-02-04T23:46:09.234Z,7.70
2023-02-04T23:48:36.186Z,7.60
2023-02-04T23:51:03.208Z,7.50
2023-02-04T23:53:30.098Z,7.50
2023-02-04T23:55:56.881Z,7.50
2023-02-04T23:58:23.651Z,7.50
